sensor_id;sensor_type;location;lat;lon;timestamp;pressure;altitude;pressure_sealevel;temperature;humidity
8051;BME280;4068;42.158;24.732;2022-10-16T00:01:16;100362.41;;;10.05;100.00
8051;BME280;4068;42.158;24.732;2022-10-16T00:03:43;100368.78;;;10.02;100.00
8051;BME280;4068;42.158;24.732;2022-10-16T00:06:10;100361.03;;;9.99;100.00
8051;BME280;4068;42.158;24.732;2022-10-16T00:08:36;100371.81;;;9.96;100.00
8051;BME280;4068;42.158;24.732;2022-10-16T00:11:13;100354.63;;;9.89;100.00
8051;BME280;4068;42.158;24.732;2022-10-16T00:13:40;100374.47;;;9.96;100.00
8051;BME280;4068;42.158;24.732;2022-10-16T00:16:07;100361.94;;;9.85;100.00
8051;BME280;4068;42.158;24.732;2022-10-16T00:18:32;100372.97;;;9.92;100.00
8051;BME280;4068;42.158;24.732;2022-10-16T00:21:13;100382.16;;;9.86;100.00
8051;BME280;4068;42.158;24.732;2022-10-16T00:23:39;100376.03;;;9.85;100.00
8051;BME280;4068;42.158;24.732;2022-10-16T00:26:07;100375.44;;;9.80;100.00
8051;BME280;4068;42.158;24.732;2022-10-16T00:28:33;100369.81;;;9.72;100.00
8051;BME280;4068;42.158;24.732;2022-10-16T00:31:03;100370.03;;;9.69;100.00
8051;BME280;4068;42.158;24.732;2022-10-16T00:33:29;100370.59;;;9.60;100.00
8051;BME280;4068;42.158;24.732;2022-10-16T00:35:57;100366.84;;;9.49;100.00
8051;BME280;4068;42.158;24.732;2022-10-16T00:38:23;100385.25;;;9.51;100.00
8051;BME280;4068;42.158;24.732;2022-10-16T00:40:48;100388.22;;;9.46;100.00
8051;BME280;4068;42.158;24.732;2022-10-16T00:43:33;100390.09;;;9.44;100.00
8051;BME280;4068;42.158;24.732;2022-10-16T00:46:00;100389.53;;;9.39;100.00
8051;BME280;4068;42.158;24.732;2022-10-16T00:48:27;100388.03;;;9.35;100.00
8051;BME280;4068;42.158;24.732;2022-10-16T00:50:52;100387.53;;;9.28;100.00
8051;BME280;4068;42.158;24.732;2022-10-16T00:53:19;100394.44;;;9.31;100.00
8051;BME280;4068;42.158;24.732;2022-10-16T00:55:44;100397.38;;;9.26;100.00
8051;BME280;4068;42.158;24.732;2022-10-16T00:58:11;100384.31;;;9.09;100.00
8051;BME280;4068;42.158;24.732;2022-10-16T01:00:36;100378.47;;;9.04;100.00
8051;BME280;4068;42.158;24.732;2022-10-16T01:03:21;100407.78;;;9.15;100.00
8051;BME280;4068;42.158;24.732;2022-10-16T01:05:51;100421.06;;;9.13;100.00
8051;BME280;4068;42.158;24.732;2022-10-16T01:08:31;100423.91;;;9.10;100.00
8051;BME280;4068;42.158;24.732;2022-10-16T01:11:09;100411.78;;;8.92;100.00
8051;BME280;4068;42.158;24.732;2022-10-16T01:13:43;100431.63;;;8.99;100.00
8051;BME280;4068;42.158;24.732;2022-10-16T01:16:20;100432.41;;;9.01;100.00
8051;BME280;4068;42.158;24.732;2022-10-16T01:18:55;100403.84;;;8.92;100.00
8051;BME280;4068;42.158;24.732;2022-10-16T01:21:26;100426.25;;;9.01;100.00
8051;BME280;4068;42.158;24.732;2022-10-16T01:24:03;100430.06;;;8.96;100.00
8051;BME280;4068;42.158;24.732;2022-10-16T01:29:27;100399.84;;;8.70;100.00
8051;BME280;4068;42.158;24.732;2022-10-16T01:31:59;100426.69;;;8.78;100.00
8051;BME280;4068;42.158;24.732;2022-10-16T01:34:42;100435.22;;;8.84;100.00
8051;BME280;4068;42.158;24.732;2022-10-16T01:37:20;100411.72;;;8.63;100.00
8051;BME280;4068;42.158;24.732;2022-10-16T01:39:49;100432.91;;;8.77;100.00
8051;BME280;4068;42.158;24.732;2022-10-16T01:42:22;100438.75;;;8.68;100.00
8051;BME280;4068;42.158;24.732;2022-10-16T01:44:50;100440.72;;;8.64;100.00
8051;BME280;4068;42.158;24.732;2022-10-16T01:47:18;100433.25;;;8.57;100.00
8051;BME280;4068;42.158;24.732;2022-10-16T01:49:47;100438.31;;;8.45;100.00
8051;BME280;4068;42.158;24.732;2022-10-16T01:52:15;100446.88;;;8.49;100.00
8051;BME280;4068;42.158;24.732;2022-10-16T01:54:45;100433.66;;;8.33;100.00
8051;BME280;4068;42.158;24.732;2022-10-16T01:57:13;100455.09;;;8.44;100.00
8051;BME280;4068;42.158;24.732;2022-10-16T01:59:45;100452.34;;;8.46;100.00
8051;BME280;4068;42.158;24.732;2022-10-16T02:02:13;100449.53;;;8.49;100.00
8051;BME280;4068;42.158;24.732;2022-10-16T02:04:46;100449.72;;;8.46;100.00
8051;BME280;4068;42.158;24.732;2022-10-16T02:07:13;100415.84;;;8.21;100.00
8051;BME280;4068;42.158;24.732;2022-10-16T02:09:39;100448.34;;;8.39;100.00
8051;BME280;4068;42.158;24.732;2022-10-16T02:12:24;100449.25;;;8.38;100.00
8051;BME280;4068;42.158;24.732;2022-10-16T02:14:52;100446.72;;;8.36;100.00
8051;BME280;4068;42.158;24.732;2022-10-16T02:17:19;100453.78;;;8.36;100.00
8051;BME280;4068;42.158;24.732;2022-10-16T02:19:47;100442.81;;;8.27;100.00
8051;BME280;4068;42.158;24.732;2022-10-16T02:22:18;100454.06;;;8.31;100.00
8051;BME280;4068;42.158;24.732;2022-10-16T02:24:55;100455.94;;;8.29;100.00
8051;BME280;4068;42.158;24.732;2022-10-16T02:30:09;100453.38;;;8.27;100.00
8051;BME280;4068;42.158;24.732;2022-10-16T02:32:39;100460.28;;;8.30;100.00
8051;BME280;4068;42.158;24.732;2022-10-16T02:35:07;100463.53;;;8.35;100.00
8051;BME280;4068;42.158;24.732;2022-10-16T02:37:33;100466.59;;;8.27;100.00
8051;BME280;4068;42.158;24.732;2022-10-16T02:39:58;100475.72;;;8.22;100.00
8051;BME280;4068;42.158;24.732;2022-10-16T02:42:29;100468.03;;;8.17;100.00
8051;BME280;4068;42.158;24.732;2022-10-16T02:44:54;100466.06;;;8.05;100.00
8051;BME280;4068;42.158;24.732;2022-10-16T02:47:20;100472.63;;;7.98;100.00
8051;BME280;4068;42.158;24.732;2022-10-16T02:49:46;100475.78;;;7.88;100.00
8051;BME280;4068;42.158;24.732;2022-10-16T02:52:11;100475.34;;;7.80;100.00
8051;BME280;4068;42.158;24.732;2022-10-16T02:54:36;100472.84;;;7.61;100.00
8051;BME280;4068;42.158;24.732;2022-10-16T02:57:02;100480.44;;;7.67;100.00
8051;BME280;4068;42.158;24.732;2022-10-16T02:59:27;100485.72;;;7.67;100.00
8051;BME280;4068;42.158;24.732;2022-10-16T03:01:52;100470.28;;;7.59;100.00
8051;BME280;4068;42.158;24.732;2022-10-16T03:04:18;100476.41;;;7.60;100.00
8051;BME280;4068;42.158;24.732;2022-10-16T03:06:43;100488.09;;;7.72;100.00
8051;BME280;4068;42.158;24.732;2022-10-16T03:09:09;100493.38;;;7.72;100.00
8051;BME280;4068;42.158;24.732;2022-10-16T03:11:34;100492.38;;;7.74;100.00
8051;BME280;4068;42.158;24.732;2022-10-16T03:14:00;100487.09;;;7.74;100.00
8051;BME280;4068;42.158;24.732;2022-10-16T03:16:25;100473.53;;;7.65;100.00
8051;BME280;4068;42.158;24.732;2022-10-16T03:18:51;100501.22;;;7.73;100.00
8051;BME280;4068;42.158;24.732;2022-10-16T03:21:16;100513.50;;;7.74;100.00
8051;BME280;4068;42.158;24.732;2022-10-16T03:23:42;100486.97;;;7.60;100.00
8051;BME280;4068;42.158;24.732;2022-10-16T03:26:07;100509.41;;;7.69;100.00
8051;BME280;4068;42.158;24.732;2022-10-16T03:28:32;100512.50;;;7.59;100.00
8051;BME280;4068;42.158;24.732;2022-10-16T03:30:58;100515.00;;;7.63;100.00
8051;BME280;4068;42.158;24.732;2022-10-16T03:33:23;100504.09;;;7.53;100.00
8051;BME280;4068;42.158;24.732;2022-10-16T03:35:53;100504.38;;;7.47;100.00
8051;BME280;4068;42.158;24.732;2022-10-16T03:38:18;100519.28;;;7.48;100.00
8051;BME280;4068;42.158;24.732;2022-10-16T03:40:44;100506.44;;;7.41;100.00
8051;BME280;4068;42.158;24.732;2022-10-16T03:43:09;100511.69;;;7.41;100.00
8051;BME280;4068;42.158;24.732;2022-10-16T03:45:35;100493.19;;;7.25;100.00
8051;BME280;4068;42.158;24.732;2022-10-16T03:48:01;100510.47;;;7.31;100.00
8051;BME280;4068;42.158;24.732;2022-10-16T03:50:27;100494.25;;;7.21;100.00
8051;BME280;4068;42.158;24.732;2022-10-16T03:52:53;100526.91;;;7.36;100.00
8051;BME280;4068;42.158;24.732;2022-10-16T03:55:18;100521.31;;;7.25;100.00
8051;BME280;4068;42.158;24.732;2022-10-16T03:57:43;100525.22;;;7.18;100.00
8051;BME280;4068;42.158;24.732;2022-10-16T04:00:10;100524.97;;;7.22;100.00
8051;BME280;4068;42.158;24.732;2022-10-16T04:02:35;100523.81;;;7.28;100.00
8051;BME280;4068;42.158;24.732;2022-10-16T04:05:01;100524.59;;;7.30;100.00
8051;BME280;4068;42.158;24.732;2022-10-16T04:07:26;100500.00;;;7.12;100.00
8051;BME280;4068;42.158;24.732;2022-10-16T04:09:52;100534.84;;;7.19;100.00
8051;BME280;4068;42.158;24.732;2022-10-16T04:12:17;100527.94;;;7.16;100.00
8051;BME280;4068;42.158;24.732;2022-10-16T04:14:42;100519.25;;;7.14;100.00
8051;BME280;4068;42.158;24.732;2022-10-16T04:17:08;100527.84;;;7.18;100.00
8051;BME280;4068;42.158;24.732;2022-10-16T04:19:33;100535.38;;;7.08;100.00
8051;BME280;4068;42.158;24.732;2022-10-16T04:21:59;100523.50;;;7.17;100.00
8051;BME280;4068;42.158;24.732;2022-10-16T04:24:24;100523.97;;;7.07;100.00
8051;BME280;4068;42.158;24.732;2022-10-16T04:26:49;100523.25;;;7.04;100.00
8051;BME280;4068;42.158;24.732;2022-10-16T04:29:15;100522.19;;;6.90;100.00
8051;BME280;4068;42.158;24.732;2022-10-16T04:31:40;100533.28;;;6.97;100.00
8051;BME280;4068;42.158;24.732;2022-10-16T04:34:06;100529.78;;;6.97;100.00
8051;BME280;4068;42.158;24.732;2022-10-16T04:36:31;100538.47;;;6.99;100.00
8051;BME280;4068;42.158;24.732;2022-10-16T04:38:56;100526.28;;;6.96;100.00
8051;BME280;4068;42.158;24.732;2022-10-16T04:41:22;100516.06;;;6.90;100.00
8051;BME280;4068;42.158;24.732;2022-10-16T04:43:47;100510.00;;;6.88;100.00
8051;BME280;4068;42.158;24.732;2022-10-16T04:46:13;100532.22;;;7.01;100.00
8051;BME280;4068;42.158;24.732;2022-10-16T04:48:38;100502.25;;;6.85;100.00
8051;BME280;4068;42.158;24.732;2022-10-16T04:51:04;100513.28;;;6.93;100.00
8051;BME280;4068;42.158;24.732;2022-10-16T04:53:29;100537.59;;;6.98;100.00
8051;BME280;4068;42.158;24.732;2022-10-16T04:55:54;100538.72;;;6.94;100.00
8051;BME280;4068;42.158;24.732;2022-10-16T04:58:21;100541.13;;;6.99;100.00
8051;BME280;4068;42.158;24.732;2022-10-16T05:00:46;100556.47;;;7.08;100.00
8051;BME280;4068;42.158;24.732;2022-10-16T05:03:12;100523.66;;;6.96;100.00
8051;BME280;4068;42.158;24.732;2022-10-16T05:05:42;100549.03;;;7.16;100.00
8051;BME280;4068;42.158;24.732;2022-10-16T05:08:08;100553.16;;;7.22;100.00
8051;BME280;4068;42.158;24.732;2022-10-16T05:10:34;100519.63;;;7.06;100.00
8051;BME280;4068;42.158;24.732;2022-10-16T05:12:59;100562.38;;;7.31;100.00
8051;BME280;4068;42.158;24.732;2022-10-16T05:15:25;100551.34;;;7.22;100.00
8051;BME280;4068;42.158;24.732;2022-10-16T05:17:53;100562.78;;;7.40;100.00
8051;BME280;4068;42.158;24.732;2022-10-16T05:20:18;100574.47;;;7.52;100.00
8051;BME280;4068;42.158;24.732;2022-10-16T05:22:44;100558.88;;;7.48;100.00
8051;BME280;4068;42.158;24.732;2022-10-16T05:25:09;100580.44;;;7.73;100.00
8051;BME280;4068;42.158;24.732;2022-10-16T05:27:35;100585.19;;;7.84;100.00
8051;BME280;4068;42.158;24.732;2022-10-16T05:30:00;100583.53;;;7.82;100.00
8051;BME280;4068;42.158;24.732;2022-10-16T05:32:26;100555.41;;;7.81;100.00
8051;BME280;4068;42.158;24.732;2022-10-16T05:34:51;100593.50;;;8.10;100.00
8051;BME280;4068;42.158;24.732;2022-10-16T05:37:17;100599.38;;;8.15;100.00
8051;BME280;4068;42.158;24.732;2022-10-16T05:39:42;100600.78;;;8.22;100.00
8051;BME280;4068;42.158;24.732;2022-10-16T05:42:08;100605.03;;;8.25;100.00
8051;BME280;4068;42.158;24.732;2022-10-16T05:44:33;100619.97;;;8.26;100.00
8051;BME280;4068;42.158;24.732;2022-10-16T05:46:58;100604.94;;;8.26;100.00
8051;BME280;4068;42.158;24.732;2022-10-16T05:49:24;100593.09;;;8.18;100.00
8051;BME280;4068;42.158;24.732;2022-10-16T05:51:49;100634.06;;;8.42;100.00
8051;BME280;4068;42.158;24.732;2022-10-16T05:54:15;100600.88;;;8.37;100.00
8051;BME280;4068;42.158;24.732;2022-10-16T05:56:40;100623.44;;;8.60;100.00
8051;BME280;4068;42.158;24.732;2022-10-16T05:59:06;100606.03;;;8.56;100.00
8051;BME280;4068;42.158;24.732;2022-10-16T06:01:32;100633.00;;;8.78;100.00
8051;BME280;4068;42.158;24.732;2022-10-16T06:03:57;100627.63;;;8.80;100.00
8051;BME280;4068;42.158;24.732;2022-10-16T06:06:25;100633.09;;;8.93;100.00
8051;BME280;4068;42.158;24.732;2022-10-16T06:08:52;100630.88;;;9.01;100.00
8051;BME280;4068;42.158;24.732;2022-10-16T06:11:20;100636.81;;;9.21;100.00
8051;BME280;4068;42.158;24.732;2022-10-16T06:13:50;100646.13;;;9.28;100.00
8051;BME280;4068;42.158;24.732;2022-10-16T06:16:15;100642.50;;;9.29;100.00
8051;BME280;4068;42.158;24.732;2022-10-16T06:18:41;100643.94;;;9.35;100.00
8051;BME280;4068;42.158;24.732;2022-10-16T06:21:08;100636.91;;;9.49;100.00
8051;BME280;4068;42.158;24.732;2022-10-16T06:23:35;100653.25;;;9.72;100.00
8051;BME280;4068;42.158;24.732;2022-10-16T06:26:07;100656.97;;;9.84;100.00
8051;BME280;4068;42.158;24.732;2022-10-16T06:28:33;100648.28;;;9.96;100.00
8051;BME280;4068;42.158;24.732;2022-10-16T06:31:00;100653.78;;;9.93;100.00
8051;BME280;4068;42.158;24.732;2022-10-16T06:33:25;100651.97;;;10.08;100.00
8051;BME280;4068;42.158;24.732;2022-10-16T06:35:51;100657.19;;;10.24;100.00
8051;BME280;4068;42.158;24.732;2022-10-16T06:38:16;100672.56;;;10.48;100.00
8051;BME280;4068;42.158;24.732;2022-10-16T06:40:41;100680.63;;;10.61;100.00
8051;BME280;4068;42.158;24.732;2022-10-16T06:43:07;100679.38;;;10.66;100.00
8051;BME280;4068;42.158;24.732;2022-10-16T06:45:32;100683.72;;;10.82;100.00
8051;BME280;4068;42.158;24.732;2022-10-16T06:47:58;100686.56;;;10.93;100.00
8051;BME280;4068;42.158;24.732;2022-10-16T06:50:23;100689.53;;;11.01;100.00
8051;BME280;4068;42.158;24.732;2022-10-16T06:52:49;100672.47;;;11.05;100.00
8051;BME280;4068;42.158;24.732;2022-10-16T06:55:14;100685.59;;;11.21;100.00
8051;BME280;4068;42.158;24.732;2022-10-16T06:57:40;100679.41;;;11.08;100.00
8051;BME280;4068;42.158;24.732;2022-10-16T07:00:06;100698.50;;;11.28;100.00
8051;BME280;4068;42.158;24.732;2022-10-16T07:02:31;100705.00;;;11.36;100.00
8051;BME280;4068;42.158;24.732;2022-10-16T07:04:57;100691.47;;;11.54;100.00
8051;BME280;4068;42.158;24.732;2022-10-16T07:07:22;100696.94;;;11.78;100.00
8051;BME280;4068;42.158;24.732;2022-10-16T07:09:49;100695.78;;;11.82;100.00
8051;BME280;4068;42.158;24.732;2022-10-16T07:12:15;100704.84;;;11.92;100.00
8051;BME280;4068;42.158;24.732;2022-10-16T07:14:40;100688.16;;;11.90;100.00
8051;BME280;4068;42.158;24.732;2022-10-16T07:17:06;100688.16;;;11.90;100.00
8051;BME280;4068;42.158;24.732;2022-10-16T07:19:31;100717.25;;;12.19;100.00
8051;BME280;4068;42.158;24.732;2022-10-16T07:21:57;100711.41;;;12.27;100.00
8051;BME280;4068;42.158;24.732;2022-10-16T07:24:22;100723.13;;;12.37;100.00
8051;BME280;4068;42.158;24.732;2022-10-16T07:26:48;100715.13;;;12.50;100.00
8051;BME280;4068;42.158;24.732;2022-10-16T07:29:19;100711.19;;;12.56;100.00
8051;BME280;4068;42.158;24.732;2022-10-16T07:31:45;100702.75;;;12.62;100.00
8051;BME280;4068;42.158;24.732;2022-10-16T07:34:11;100671.03;;;12.59;100.00
8051;BME280;4068;42.158;24.732;2022-10-16T07:36:37;100686.13;;;12.84;100.00
8051;BME280;4068;42.158;24.732;2022-10-16T07:39:03;100690.31;;;13.00;100.00
8051;BME280;4068;42.158;24.732;2022-10-16T07:41:28;100690.50;;;13.09;100.00
8051;BME280;4068;42.158;24.732;2022-10-16T07:43:54;100690.50;;;13.09;100.00
8051;BME280;4068;42.158;24.732;2022-10-16T07:46:21;100690.34;;;13.24;100.00
8051;BME280;4068;42.158;24.732;2022-10-16T07:48:47;100682.13;;;13.40;100.00
8051;BME280;4068;42.158;24.732;2022-10-16T07:51:17;100684.84;;;13.51;100.00
8051;BME280;4068;42.158;24.732;2022-10-16T07:53:43;100685.13;;;13.71;100.00
8051;BME280;4068;42.158;24.732;2022-10-16T07:56:10;100690.50;;;13.82;100.00
8051;BME280;4068;42.158;24.732;2022-10-16T07:58:36;100696.63;;;13.95;99.26
8051;BME280;4068;42.158;24.732;2022-10-16T08:01:07;100686.53;;;13.99;99.68
8051;BME280;4068;42.158;24.732;2022-10-16T08:03:33;100662.31;;;14.02;98.39
8051;BME280;4068;42.158;24.732;2022-10-16T08:05:59;100693.25;;;14.16;97.61
8051;BME280;4068;42.158;24.732;2022-10-16T08:08:25;100689.13;;;14.23;97.63
8051;BME280;4068;42.158;24.732;2022-10-16T08:10:51;100689.03;;;14.36;96.96
8051;BME280;4068;42.158;24.732;2022-10-16T08:13:16;100683.81;;;14.35;97.52
8051;BME280;4068;42.158;24.732;2022-10-16T08:15:42;100673.63;;;14.40;97.59
8051;BME280;4068;42.158;24.732;2022-10-16T08:18:09;100687.59;;;14.77;96.37
8051;BME280;4068;42.158;24.732;2022-10-16T08:20:36;100686.75;;;14.88;95.50
8051;BME280;4068;42.158;24.732;2022-10-16T08:23:01;100667.44;;;14.84;94.23
8051;BME280;4068;42.158;24.732;2022-10-16T08:25:27;100687.94;;;15.07;93.24
8051;BME280;4068;42.158;24.732;2022-10-16T08:27:53;100686.69;;;15.22;92.76
8051;BME280;4068;42.158;24.732;2022-10-16T08:30:20;100684.31;;;15.40;90.54
8051;BME280;4068;42.158;24.732;2022-10-16T08:32:46;100666.50;;;15.29;91.17
8051;BME280;4068;42.158;24.732;2022-10-16T08:35:12;100683.84;;;15.35;90.25
8051;BME280;4068;42.158;24.732;2022-10-16T08:37:38;100674.47;;;15.41;90.48
8051;BME280;4068;42.158;24.732;2022-10-16T08:40:11;100680.22;;;15.57;89.47
8051;BME280;4068;42.158;24.732;2022-10-16T08:42:46;100681.50;;;15.74;88.10
8051;BME280;4068;42.158;24.732;2022-10-16T08:50:31;100678.84;;;15.95;86.88
8051;BME280;4068;42.158;24.732;2022-10-16T08:52:58;100652.94;;;15.96;86.29
8051;BME280;4068;42.158;24.732;2022-10-16T08:57:59;100669.59;;;16.20;84.29
8051;BME280;4068;42.158;24.732;2022-10-16T09:00:26;100671.56;;;16.28;85.02
8051;BME280;4068;42.158;24.732;2022-10-16T09:16:58;100648.38;;;16.79;79.40
8051;BME280;4068;42.158;24.732;2022-10-16T09:19:40;100667.91;;;16.91;79.56
8051;BME280;4068;42.158;24.732;2022-10-16T09:22:16;100664.41;;;17.10;77.20
8051;BME280;4068;42.158;24.732;2022-10-16T09:24:42;100664.16;;;17.13;77.65
8051;BME280;4068;42.158;24.732;2022-10-16T09:27:12;100642.09;;;17.00;76.63
8051;BME280;4068;42.158;24.732;2022-10-16T09:29:38;100668.09;;;17.29;77.50
8051;BME280;4068;42.158;24.732;2022-10-16T09:32:13;100670.09;;;17.36;76.01
8051;BME280;4068;42.158;24.732;2022-10-16T09:34:45;100661.91;;;17.38;75.19
8051;BME280;4068;42.158;24.732;2022-10-16T09:37:14;100658.66;;;17.54;75.44
8051;BME280;4068;42.158;24.732;2022-10-16T09:39:46;100657.91;;;17.71;75.15
8051;BME280;4068;42.158;24.732;2022-10-16T09:42:20;100656.78;;;17.74;71.11
8051;BME280;4068;42.158;24.732;2022-10-16T09:44:50;100655.38;;;17.80;71.05
8051;BME280;4068;42.158;24.732;2022-10-16T09:47:21;100653.66;;;17.88;68.23
8051;BME280;4068;42.158;24.732;2022-10-16T09:49:59;100647.22;;;17.62;66.65
8051;BME280;4068;42.158;24.732;2022-10-16T09:52:28;100646.94;;;17.74;67.72
8051;BME280;4068;42.158;24.732;2022-10-16T09:54:56;100643.69;;;17.51;66.23
8051;BME280;4068;42.158;24.732;2022-10-16T09:57:22;100620.81;;;17.47;67.99
8051;BME280;4068;42.158;24.732;2022-10-16T09:59:55;100638.00;;;17.74;67.90
8051;BME280;4068;42.158;24.732;2022-10-16T10:02:38;100635.91;;;17.97;65.79
8051;BME280;4068;42.158;24.732;2022-10-16T10:05:05;100624.97;;;18.08;66.11
8051;BME280;4068;42.158;24.732;2022-10-16T10:07:43;100626.63;;;18.19;62.35
8051;BME280;4068;42.158;24.732;2022-10-16T10:10:21;100631.38;;;18.35;59.55
8051;BME280;4068;42.158;24.732;2022-10-16T10:12:47;100623.88;;;18.39;60.31
8051;BME280;4068;42.158;24.732;2022-10-16T10:15:14;100624.72;;;18.39;58.76
8051;BME280;4068;42.158;24.732;2022-10-16T10:17:48;100608.94;;;18.26;57.62
8051;BME280;4068;42.158;24.732;2022-10-16T10:20:33;100609.22;;;18.33;57.51
8051;BME280;4068;42.158;24.732;2022-10-16T10:23:00;100599.94;;;18.18;58.66
8051;BME280;4068;42.158;24.732;2022-10-16T10:26:21;100612.09;;;18.50;59.63
8051;BME280;4068;42.158;24.732;2022-10-16T10:31:21;100605.88;;;18.49;60.60
8051;BME280;4068;42.158;24.732;2022-10-16T10:34:02;100600.66;;;18.48;58.44
8051;BME280;4068;42.158;24.732;2022-10-16T10:39:15;100578.69;;;18.34;58.79
8051;BME280;4068;42.158;24.732;2022-10-16T10:42:22;100596.06;;;18.40;58.41
8051;BME280;4068;42.158;24.732;2022-10-16T10:47:31;100591.31;;;18.52;58.31
8051;BME280;4068;42.158;24.732;2022-10-16T10:50:26;100584.88;;;18.62;57.68
8051;BME280;4068;42.158;24.732;2022-10-16T10:56:11;100585.22;;;18.77;56.26
8051;BME280;4068;42.158;24.732;2022-10-16T11:01:15;100582.06;;;18.82;55.01
8051;BME280;4068;42.158;24.732;2022-10-16T11:06:32;100580.34;;;19.09;54.95
8051;BME280;4068;42.158;24.732;2022-10-16T11:11:44;100569.69;;;19.17;54.13
8051;BME280;4068;42.158;24.732;2022-10-16T11:14:52;100575.72;;;19.19;53.13
8051;BME280;4068;42.158;24.732;2022-10-16T11:17:19;100549.16;;;19.16;53.60
8051;BME280;4068;42.158;24.732;2022-10-16T11:20:14;100561.38;;;19.10;53.11
8051;BME280;4068;42.158;24.732;2022-10-16T11:22:46;100541.94;;;19.17;54.11
8051;BME280;4068;42.158;24.732;2022-10-16T11:30:31;100552.81;;;19.33;52.98
8051;BME280;4068;42.158;24.732;2022-10-16T11:33:24;100542.91;;;19.34;52.27
8051;BME280;4068;42.158;24.732;2022-10-16T11:38:53;100520.66;;;19.05;51.82
8051;BME280;4068;42.158;24.732;2022-10-16T11:46:23;100549.16;;;18.98;52.45
8051;BME280;4068;42.158;24.732;2022-10-16T11:49:25;100543.09;;;18.96;52.64
8051;BME280;4068;42.158;24.732;2022-10-16T11:52:17;100538.13;;;19.01;52.53
8051;BME280;4068;42.158;24.732;2022-10-16T11:54:55;100543.63;;;19.18;53.12
8051;BME280;4068;42.158;24.732;2022-10-16T11:57:24;100539.25;;;19.17;51.13
8051;BME280;4068;42.158;24.732;2022-10-16T11:59:55;100509.22;;;19.03;52.11
8051;BME280;4068;42.158;24.732;2022-10-16T12:10:29;100545.97;;;19.39;50.51
8051;BME280;4068;42.158;24.732;2022-10-16T12:12:56;100542.22;;;19.31;50.17
8051;BME280;4068;42.158;24.732;2022-10-16T12:15:28;100544.69;;;19.25;50.35
8051;BME280;4068;42.158;24.732;2022-10-16T12:17:55;100544.00;;;19.23;50.23
8051;BME280;4068;42.158;24.732;2022-10-16T12:20:29;100536.69;;;19.33;50.31
8051;BME280;4068;42.158;24.732;2022-10-16T12:23:04;100538.75;;;19.39;50.92
8051;BME280;4068;42.158;24.732;2022-10-16T12:25:33;100539.66;;;19.48;51.14
8051;BME280;4068;42.158;24.732;2022-10-16T12:28:19;100535.44;;;19.45;51.29
8051;BME280;4068;42.158;24.732;2022-10-16T12:31:03;100517.22;;;19.39;50.61
8051;BME280;4068;42.158;24.732;2022-10-16T12:33:33;100539.66;;;19.48;50.12
8051;BME280;4068;42.158;24.732;2022-10-16T12:36:02;100542.34;;;19.48;50.07
8051;BME280;4068;42.158;24.732;2022-10-16T12:38:35;100541.25;;;19.59;50.33
8051;BME280;4068;42.158;24.732;2022-10-16T12:41:05;100534.16;;;19.58;49.96
8051;BME280;4068;42.158;24.732;2022-10-16T12:43:46;100513.53;;;19.40;49.65
8051;BME280;4068;42.158;24.732;2022-10-16T12:48:41;100543.78;;;19.34;50.35
8051;BME280;4068;42.158;24.732;2022-10-16T12:51:33;100542.47;;;19.38;49.85
8051;BME280;4068;42.158;24.732;2022-10-16T13:08:26;100542.88;;;19.25;50.49
8051;BME280;4068;42.158;24.732;2022-10-16T13:19:35;100545.59;;;19.34;50.54
8051;BME280;4068;42.158;24.732;2022-10-16T13:30:02;100549.56;;;19.21;51.02
8051;BME280;4068;42.158;24.732;2022-10-16T13:32:34;100535.31;;;19.11;51.41
8051;BME280;4068;42.158;24.732;2022-10-16T13:35:00;100552.41;;;19.20;51.55
8051;BME280;4068;42.158;24.732;2022-10-16T13:37:26;100534.09;;;19.05;51.38
8051;BME280;4068;42.158;24.732;2022-10-16T13:40:08;100552.41;;;19.20;51.40
8051;BME280;4068;42.158;24.732;2022-10-16T13:42:42;100557.22;;;19.16;51.79
8051;BME280;4068;42.158;24.732;2022-10-16T13:45:21;100547.94;;;19.10;51.36
8051;BME280;4068;42.158;24.732;2022-10-16T13:47:47;100552.16;;;19.13;51.05
8051;BME280;4068;42.158;24.732;2022-10-16T13:50:16;100551.09;;;19.06;51.17
8051;BME280;4068;42.158;24.732;2022-10-16T13:52:42;100557.31;;;19.06;51.38
8051;BME280;4068;42.158;24.732;2022-10-16T13:55:16;100536.03;;;18.95;51.85
8051;BME280;4068;42.158;24.732;2022-10-16T13:57:43;100559.69;;;19.09;52.45
8051;BME280;4068;42.158;24.732;2022-10-16T14:00:24;100558.28;;;19.05;52.93
8051;BME280;4068;42.158;24.732;2022-10-16T14:03:07;100555.31;;;19.08;52.52
8051;BME280;4068;42.158;24.732;2022-10-16T14:05:33;100539.34;;;18.89;52.00
8051;BME280;4068;42.158;24.732;2022-10-16T14:08:00;100558.75;;;19.01;52.11
8051;BME280;4068;42.158;24.732;2022-10-16T14:10:31;100565.53;;;19.05;51.77
8051;BME280;4068;42.158;24.732;2022-10-16T14:13:05;100547.78;;;18.94;51.51
8051;BME280;4068;42.158;24.732;2022-10-16T14:15:33;100567.59;;;18.93;52.42
8051;BME280;4068;42.158;24.732;2022-10-16T14:17:59;100553.28;;;18.74;52.62
8051;BME280;4068;42.158;24.732;2022-10-16T14:20:31;100565.78;;;18.84;53.14
8051;BME280;4068;42.158;24.732;2022-10-16T14:23:01;100568.78;;;18.80;53.15
8051;BME280;4068;42.158;24.732;2022-10-16T14:25:29;100564.19;;;18.73;52.80
8051;BME280;4068;42.158;24.732;2022-10-16T14:28:00;100562.09;;;18.67;53.42
8051;BME280;4068;42.158;24.732;2022-10-16T14:30:27;100567.75;;;18.63;53.56
8051;BME280;4068;42.158;24.732;2022-10-16T14:33:01;100569.22;;;18.58;53.77
8051;BME280;4068;42.158;24.732;2022-10-16T14:35:33;100571.59;;;18.61;53.46
8051;BME280;4068;42.158;24.732;2022-10-16T14:38:00;100569.81;;;18.52;53.10
8051;BME280;4068;42.158;24.732;2022-10-16T14:40:31;100560.28;;;18.39;53.45
8051;BME280;4068;42.158;24.732;2022-10-16T14:42:58;100576.22;;;18.41;53.59
8051;BME280;4068;42.158;24.732;2022-10-16T14:45:28;100549.09;;;18.16;53.63
8051;BME280;4068;42.158;24.732;2022-10-16T14:47:58;100577.56;;;18.27;54.16
8051;BME280;4068;42.158;24.732;2022-10-16T14:50:24;100568.56;;;18.18;54.06
8051;BME280;4068;42.158;24.732;2022-10-16T14:52:50;100569.03;;;18.14;54.45